createdAt,value
2023-03-22T00:00:53.898Z,58.85
2023-03-22T00:03:20.984Z,57.08
2023-03-22T00:05:48.012Z,60.90
2023-03-22T00:08:15.709Z,60.28
2023-03-22T00:10:42.738Z,55.53
2023-03-22T00:13:10.253Z,51.90
2023-03-22T00:15:37.377Z,49.15
2023-03-22T00:18:05.750Z,51.47
2023-03-22T00:20:38.223Z,43.90
2023-03-22T00:23:06.549Z,49.90
2023-03-22T00:25:33.614Z,52.70
2023-03-22T00:28:00.640Z,54.45
2023-03-22T00:30:27.708Z,59.63
2023-03-22T00:32:54.750Z,59.45
2023-03-22T00:35:21.820Z,59.67
2023-03-22T00:37:51.444Z,59.17
2023-03-22T00:40:18.646Z,58.88
2023-03-22T00:42:45.667Z,56.90
2023-03-22T00:45:12.833Z,56.65
2023-03-22T00:47:40.202Z,59.78
2023-03-22T00:50:07.573Z,63.08
2023-03-22T00:52:34.582Z,61.50
2023-03-22T00:55:01.604Z,63.92
2023-03-22T00:57:28.623Z,59.45
2023-03-22T00:59:55.776Z,63.17
2023-03-22T01:02:29.503Z,61.75
2023-03-22T01:04:56.652Z,64.70
2023-03-22T01:07:24.068Z,60.17
2023-03-22T01:09:51.477Z,65.53
2023-03-22T01:12:18.775Z,64.50
2023-03-22T01:14:45.984Z,62.63
2023-03-22T01:17:13.048Z,64.70
2023-03-22T01:19:40.472Z,63.80
2023-03-22T01:22:07.625Z,65.85
2023-03-22T01:24:34.779Z,65.78
2023-03-22T01:27:02.040Z,65.57
2023-03-22T01:29:29.114Z,65.40
2023-03-22T01:31:56.286Z,64.70
2023-03-22T01:34:23.404Z,67.35
2023-03-22T01:36:50.556Z,65.22
2023-03-22T01:39:17.641Z,63.45
2023-03-22T01:41:44.712Z,64.10
2023-03-22T01:44:13.218Z,63.35
2023-03-22T01:46:40.868Z,64.13
2023-03-22T01:49:09.335Z,60.25
2023-03-22T01:51:36.432Z,61.10
2023-03-22T01:54:04.218Z,62.20
2023-03-22T01:56:32.252Z,59.53
2023-03-22T01:58:59.410Z,60.00
2023-03-22T02:01:27.263Z,58.55
2023-03-22T02:04:02.730Z,62.00
2023-03-22T02:06:29.976Z,58.97
2023-03-22T02:08:58.344Z,58.95
2023-03-22T02:11:32.811Z,59.53
2023-03-22T02:14:12.174Z,58.70
2023-03-22T02:16:45.104Z,59.17
2023-03-22T02:19:24.236Z,61.83
2023-03-22T02:22:09.823Z,61.47
2023-03-22T02:24:55.617Z,60.08
2023-03-22T02:27:28.973Z,57.58
2023-03-22T02:30:14.557Z,57.80
2023-03-22T02:32:56.797Z,55.75
2023-03-22T02:35:26.666Z,57.72
2023-03-22T02:37:56.563Z,61.30
2023-03-22T02:40:33.767Z,58.42
2023-03-22T02:43:07.030Z,58.22
2023-03-22T02:45:46.130Z,57.42
2023-03-22T02:48:14.562Z,60.20
2023-03-22T02:51:00.354Z,65.85
2023-03-22T02:53:31.576Z,67.15
2023-03-22T02:56:02.712Z,67.72
2023-03-22T02:58:33.044Z,70.80
2023-03-22T03:01:01.770Z,64.63
2023-03-22T03:03:30.113Z,67.80
2023-03-22T03:06:02.267Z,61.05
2023-03-22T03:08:29.318Z,68.88
2023-03-22T03:10:56.424Z,68.47
2023-03-22T03:13:23.449Z,67.47
2023-03-22T03:15:52.567Z,64.57
2023-03-22T03:18:38.213Z,61.45
2023-03-22T03:21:17.889Z,61.15
2023-03-22T03:23:49.610Z,68.27
2023-03-22T03:26:25.937Z,68.32
2023-03-22T03:28:53.705Z,68.18
2023-03-22T03:31:38.109Z,62.80
2023-03-22T03:34:10.527Z,63.92
2023-03-22T03:36:37.998Z,58.67
2023-03-22T03:39:05.649Z,59.45
2023-03-22T03:41:32.718Z,54.10
2023-03-22T03:43:59.792Z,53.60
2023-03-22T03:46:27.777Z,51.33
2023-03-22T03:48:54.887Z,57.42
2023-03-22T03:51:21.930Z,58.08
2023-03-22T03:53:49.170Z,57.72
2023-03-22T03:56:16.232Z,63.03
2023-03-22T03:58:43.335Z,56.63
2023-03-22T04:01:10.710Z,55.67
2023-03-22T04:03:37.860Z,52.28
2023-03-22T04:06:04.932Z,55.15
2023-03-22T04:08:31.985Z,48.22
2023-03-22T04:10:59.020Z,48.25
2023-03-22T04:13:26.109Z,48.60
2023-03-22T04:15:53.914Z,48.67
2023-03-22T04:18:21.231Z,49.50
2023-03-22T04:20:49.432Z,47.08
2023-03-22T04:23:16.635Z,48.70
2023-03-22T04:25:49.918Z,48.67
2023-03-22T04:28:19.801Z,50.25
2023-03-22T04:30:50.971Z,51.55
2023-03-22T04:33:18.092Z,51.13
2023-03-22T04:35:47.942Z,53.67
2023-03-22T04:38:15.075Z,54.67
2023-03-22T04:40:46.650Z,54.72
2023-03-22T04:43:14.082Z,52.47
2023-03-22T04:45:42.049Z,51.67
2023-03-22T04:48:10.544Z,46.47
2023-03-22T04:50:38.333Z,44.88
2023-03-22T04:53:05.598Z,46.60
2023-03-22T04:55:34.106Z,46.65
2023-03-22T04:58:01.133Z,45.67
2023-03-22T05:00:30.303Z,43.13
2023-03-22T05:02:57.827Z,49.05
2023-03-22T05:05:25.002Z,44.33
2023-03-22T05:07:52.163Z,45.55
2023-03-22T05:10:19.330Z,43.63
2023-03-22T05:12:46.748Z,42.63
2023-03-22T05:15:14.196Z,43.30
2023-03-22T05:17:41.250Z,42.67
2023-03-22T05:20:10.134Z,43.47
2023-03-22T05:22:40.963Z,44.40
2023-03-22T05:25:08.868Z,43.70
2023-03-22T05:27:38.867Z,42.67
2023-03-22T05:30:06.416Z,43.05
2023-03-22T05:32:33.619Z,43.63
2023-03-22T05:35:04.712Z,42.05
2023-03-22T05:37:32.110Z,43.80
2023-03-22T05:39:59.240Z,42.45
2023-03-22T05:42:26.394Z,42.55
2023-03-22T05:44:53.459Z,40.90
2023-03-22T05:47:20.538Z,43.78
2023-03-22T05:49:47.560Z,42.63
2023-03-22T05:52:14.576Z,41.53
2023-03-22T05:54:41.638Z,43.13
2023-03-22T05:57:08.705Z,44.00
2023-03-22T05:59:36.423Z,41.63
2023-03-22T06:02:03.538Z,41.55
2023-03-22T06:04:30.664Z,43.38
2023-03-22T06:06:57.800Z,43.30
2023-03-22T06:09:24.822Z,43.55
2023-03-22T06:11:51.983Z,45.70
2023-03-22T06:14:19.000Z,45.40
2023-03-22T06:16:46.340Z,44.53
2023-03-22T06:19:13.412Z,47.08
2023-03-22T06:21:40.455Z,45.53
2023-03-22T06:24:07.604Z,46.67
2023-03-22T06:26:34.657Z,46.47
2023-03-22T06:29:03.563Z,46.38
2023-03-22T06:31:30.784Z,46.65
2023-03-22T06:33:57.844Z,46.78
2023-03-22T06:36:24.860Z,47.40
2023-03-22T06:38:52.017Z,47.75
2023-03-22T06:41:19.088Z,47.30
2023-03-22T06:43:46.236Z,50.88
2023-03-22T06:46:13.982Z,52.58
2023-03-22T06:48:41.142Z,49.72
2023-03-22T06:51:08.497Z,49.00
2023-03-22T06:53:35.647Z,47.58
2023-03-22T06:56:02.802Z,47.25
2023-03-22T06:58:29.850Z,45.17
2023-03-22T07:00:58.155Z,43.75
2023-03-22T07:03:25.340Z,39.47
2023-03-22T07:05:52.374Z,36.97
2023-03-22T07:08:19.404Z,31.25
2023-03-22T07:10:50.193Z,28.80
2023-03-22T07:13:17.293Z,23.90
2023-03-22T07:15:44.400Z,19.88
2023-03-22T07:18:11.573Z,17.75
2023-03-22T07:20:41.424Z,15.93
2023-03-22T07:23:10.665Z,13.45
2023-03-22T07:25:37.852Z,13.73
2023-03-22T07:28:06.891Z,13.45
2023-03-22T07:30:37.747Z,12.13
2023-03-22T07:33:05.753Z,13.52
2023-03-22T07:35:32.763Z,11.32
2023-03-22T07:38:00.801Z,11.30
2023-03-22T07:40:28.043Z,10.32
2023-03-22T07:42:55.964Z,9.85
2023-03-22T07:45:23.702Z,10.68
2023-03-22T07:47:50.927Z,9.73
2023-03-22T07:50:18.115Z,9.50
2023-03-22T07:52:45.546Z,9.88
2023-03-22T07:55:13.201Z,8.77
2023-03-22T07:57:40.674Z,9.48
2023-03-22T08:00:09.845Z,9.05
2023-03-22T08:02:37.746Z,8.20
2023-03-22T08:05:05.424Z,8.15
2023-03-22T08:07:32.796Z,8.30
2023-03-22T08:09:59.954Z,8.40
2023-03-22T08:12:28.044Z,8.60
2023-03-22T08:14:55.141Z,8.05
2023-03-22T08:17:22.279Z,8.15
2023-03-22T08:19:50.001Z,8.95
2023-03-22T08:22:17.095Z,8.80
2023-03-22T08:24:44.157Z,8.60
2023-03-22T08:27:12.217Z,8.07
2023-03-22T08:29:39.326Z,7.80
2023-03-22T08:32:06.434Z,8.35
2023-03-22T08:34:37.136Z,8.20
2023-03-22T08:37:07.372Z,7.00
2023-03-22T08:39:34.610Z,6.85
2023-03-22T08:42:01.716Z,7.45
2023-03-22T08:44:28.821Z,6.80
2023-03-22T08:46:55.947Z,7.38
2023-03-22T08:49:23.066Z,7.22
2023-03-22T08:51:50.325Z,6.22
2023-03-22T08:54:17.434Z,6.45
2023-03-22T08:56:44.620Z,6.15
2023-03-22T08:59:11.918Z,6.07
2023-03-22T09:01:39.137Z,6.25
2023-03-22T09:04:08.379Z,5.35
2023-03-22T09:06:37.447Z,5.63
2023-03-22T09:09:04.631Z,4.80
2023-03-22T09:11:31.677Z,5.65
2023-03-22T09:13:58.747Z,5.90
2023-03-22T09:16:25.956Z,5.10
2023-03-22T09:18:53.202Z,5.05
2023-03-22T09:21:21.785Z,5.05
2023-03-22T09:23:50.362Z,4.60
2023-03-22T09:26:17.617Z,5.07
2023-03-22T09:28:46.698Z,4.38
2023-03-22T09:31:13.990Z,4.28
2023-03-22T09:33:41.852Z,4.30
2023-03-22T09:36:09.631Z,3.83
2023-03-22T09:38:36.852Z,3.70
2023-03-22T09:41:05.420Z,4.30
2023-03-22T09:43:39.090Z,3.40
2023-03-22T09:46:07.290Z,2.90
2023-03-22T09:48:34.801Z,3.00
2023-03-22T09:51:02.194Z,2.90
2023-03-22T09:53:29.370Z,2.83
2023-03-22T09:56:16.814Z,2.50
2023-03-22T09:58:46.516Z,2.30
2023-03-22T10:01:13.690Z,2.30
2023-03-22T10:03:49.887Z,2.20
2023-03-22T10:06:21.183Z,1.85
2023-03-22T10:09:04.405Z,1.85
2023-03-22T10:11:37.454Z,1.95
2023-03-22T10:14:16.618Z,1.77
2023-03-22T10:16:43.749Z,2.58
2023-03-22T10:19:17.205Z,1.77
2023-03-22T10:21:44.233Z,1.50
2023-03-22T10:24:18.365Z,1.58
2023-03-22T10:26:48.358Z,1.70
2023-03-22T10:29:24.610Z,2.05
2023-03-22T10:31:51.802Z,1.50
2023-03-22T10:34:29.319Z,1.40
2023-03-22T10:36:56.437Z,1.63
2023-03-22T10:39:23.520Z,1.40
2023-03-22T10:41:50.564Z,1.50
2023-03-22T10:44:18.541Z,1.67
2023-03-22T10:46:45.757Z,1.27
2023-03-22T10:49:14.085Z,1.60
2023-03-22T10:51:41.727Z,1.48
2023-03-22T10:54:12.723Z,1.40
2023-03-22T10:56:39.758Z,1.50
2023-03-22T10:59:06.812Z,1.50
2023-03-22T11:01:36.877Z,1.65
2023-03-22T11:04:04.023Z,1.70
2023-03-22T11:06:32.944Z,1.70
2023-03-22T11:09:01.378Z,1.70
2023-03-22T11:11:32.037Z,1.63
2023-03-22T11:14:15.219Z,1.65
2023-03-22T11:16:49.456Z,1.55
2023-03-22T11:19:19.054Z,1.77
2023-03-22T11:21:46.136Z,1.90
2023-03-22T11:24:13.638Z,1.77
2023-03-22T11:26:41.878Z,1.67
2023-03-22T11:29:12.136Z,1.58
2023-03-22T11:31:56.278Z,1.55
2023-03-22T11:34:24.198Z,1.40
2023-03-22T11:36:56.983Z,1.20
2023-03-22T11:39:25.935Z,1.40
2023-03-22T11:41:53.264Z,1.50
2023-03-22T11:44:21.666Z,1.20
2023-03-22T11:46:58.237Z,1.45
2023-03-22T11:49:26.984Z,1.20
2023-03-22T11:51:54.653Z,1.48
2023-03-22T11:54:31.919Z,1.00
2023-03-22T11:57:01.149Z,1.20
2023-03-22T11:59:30.315Z,1.20
2023-03-22T12:02:24.042Z,1.25
2023-03-22T12:04:52.947Z,1.27
2023-03-22T12:07:24.630Z,1.25
2023-03-22T12:09:53.596Z,1.45
2023-03-22T12:12:23.031Z,1.40
2023-03-22T12:14:53.279Z,1.20
2023-03-22T12:19:55.861Z,1.60
2023-03-22T12:22:30.742Z,1.10
2023-03-22T12:24:57.899Z,1.60
2023-03-22T12:27:27.882Z,1.20
2023-03-22T12:29:56.357Z,1.20
2023-03-22T12:32:25.772Z,1.17
2023-03-22T12:35:01.362Z,1.63
2023-03-22T12:37:36.549Z,1.20
2023-03-22T12:40:16.578Z,1.30
2023-03-22T12:42:51.129Z,1.02
2023-03-22T12:45:19.514Z,1.30
2023-03-22T12:47:47.714Z,1.02
2023-03-22T12:50:18.718Z,1.30
2023-03-22T12:52:49.620Z,1.17
2023-03-22T12:55:19.719Z,1.20
2023-03-22T12:57:51.231Z,1.05
2023-03-22T13:00:18.472Z,1.00
2023-03-22T13:02:58.135Z,1.13
2023-03-22T13:05:27.501Z,0.95
2023-03-22T13:07:54.999Z,1.17
2023-03-22T13:10:31.698Z,1.00
2023-03-22T13:13:17.050Z,1.05
2023-03-22T13:16:22.884Z,1.10
2023-03-22T13:18:50.188Z,1.20
2023-03-22T13:21:30.338Z,0.93
2023-03-22T13:24:05.058Z,1.02
2023-03-22T13:26:52.815Z,0.88
2023-03-22T13:29:21.008Z,1.10
2023-03-22T13:31:54.590Z,0.90
2023-03-22T13:34:22.669Z,0.80
2023-03-22T13:36:55.107Z,0.95
2023-03-22T13:39:25.152Z,0.90
2023-03-22T13:42:02.796Z,0.90
2023-03-22T13:44:37.176Z,0.80
2023-03-22T13:47:04.383Z,0.75
2023-03-22T13:49:31.613Z,0.90
2023-03-22T13:51:59.571Z,0.80
2023-03-22T13:54:28.630Z,1.05
2023-03-22T13:57:00.939Z,1.20
2023-03-22T13:59:29.598Z,0.90
2023-03-22T14:02:12.081Z,0.80
2023-03-22T14:04:40.732Z,0.80
2023-03-22T14:07:11.171Z,0.90
2023-03-22T14:09:45.006Z,0.80
2023-03-22T14:12:32.410Z,1.05
2023-03-22T14:15:02.421Z,0.82
2023-03-22T14:17:38.498Z,0.75
2023-03-22T14:20:15.322Z,0.85
